createdAt,value
2018-05-09T00:02:26.372Z,14.67
2018-05-09T00:05:02.687Z,13.17
2018-05-09T00:07:38.392Z,14.07
2018-05-09T00:10:15.370Z,16.20
2018-05-09T00:12:51.634Z,16.60
2018-05-09T00:15:28.216Z,13.57
2018-05-09T00:18:05.597Z,15.20
2018-05-09T00:20:41.562Z,15.03
2018-05-09T00:23:17.206Z,15.43
2018-05-09T00:25:52.033Z,14.43
2018-05-09T00:28:27.972Z,13.43
2018-05-09T00:31:03.743Z,12.27
2018-05-09T00:33:38.572Z,12.50
2018-05-09T00:36:14.165Z,13.50
2018-05-09T00:38:49.870Z,14.70
2018-05-09T00:41:25.726Z,12.77
2018-05-09T00:44:01.395Z,13.80
2018-05-09T00:46:36.415Z,12.40
2018-05-09T00:49:12.061Z,12.33
2018-05-09T00:51:48.950Z,12.87
2018-05-09T00:54:33.403Z,13.07
2018-05-09T00:57:08.224Z,14.43
2018-05-09T00:59:43.606Z,12.93
2018-05-09T01:02:18.707Z,12.50
2018-05-09T01:04:54.062Z,12.17
2018-05-09T01:07:29.902Z,11.67
2018-05-09T01:10:05.760Z,12.63
2018-05-09T01:12:40.592Z,12.47
2018-05-09T01:15:15.624Z,13.40
2018-05-09T01:17:50.558Z,12.00
2018-05-09T01:20:25.559Z,13.50
2018-05-09T01:23:00.959Z,12.53
2018-05-09T01:25:36.479Z,11.27
2018-05-09T01:28:11.240Z,14.30
2018-05-09T01:30:46.139Z,12.70
2018-05-09T01:33:20.968Z,12.50
2018-05-09T01:35:56.011Z,14.60
2018-05-09T01:38:31.040Z,14.47
2018-05-09T01:41:06.190Z,14.20
2018-05-09T01:43:42.230Z,15.70
2018-05-09T01:46:17.271Z,13.10
2018-05-09T01:48:52.102Z,16.27
2018-05-09T01:51:27.137Z,16.10
2018-05-09T01:54:01.869Z,18.03
2018-05-09T01:56:37.311Z,17.30
2018-05-09T01:59:13.211Z,17.07
2018-05-09T02:01:49.735Z,17.00
2018-05-09T02:04:24.873Z,16.30
2018-05-09T02:07:00.017Z,15.70
2018-05-09T02:09:35.867Z,18.60
2018-05-09T02:12:11.001Z,16.73
2018-05-09T02:14:46.855Z,15.33
2018-05-09T02:17:22.403Z,17.80
2018-05-09T02:19:58.156Z,18.30
2018-05-09T02:22:33.197Z,15.40
2018-05-09T02:25:08.841Z,17.00
2018-05-09T02:27:44.594Z,17.80
2018-05-09T02:30:20.038Z,18.30
2018-05-09T02:32:54.771Z,17.33
2018-05-09T02:35:29.800Z,18.53
2018-05-09T02:38:04.631Z,19.10
2018-05-09T02:40:40.417Z,17.53
2018-05-09T02:43:15.323Z,17.17
2018-05-09T02:45:51.783Z,16.97
2018-05-09T02:48:27.229Z,14.37
2018-05-09T02:51:02.065Z,15.43
2018-05-09T02:53:36.891Z,14.03
2018-05-09T02:56:11.721Z,12.37
2018-05-09T02:58:46.759Z,11.60
2018-05-09T03:01:21.895Z,11.83
2018-05-09T03:03:57.556Z,10.90
2018-05-09T03:06:32.373Z,10.30
2018-05-09T03:09:07.826Z,10.97
2018-05-09T03:11:43.073Z,10.40
2018-05-09T03:14:18.506Z,12.10
2018-05-09T03:16:53.954Z,9.80
2018-05-09T03:19:29.701Z,12.07
2018-05-09T03:22:05.353Z,9.47
2018-05-09T03:24:41.723Z,10.57
2018-05-09T03:27:17.509Z,10.10
2018-05-09T03:29:53.383Z,9.60
2018-05-09T03:32:28.360Z,11.10
2018-05-09T03:35:04.232Z,10.67
2018-05-09T03:37:43.444Z,10.60
2018-05-09T03:40:18.380Z,9.80
2018-05-09T03:42:53.213Z,10.47
2018-05-09T03:45:28.500Z,11.20
2018-05-09T03:48:04.915Z,10.33
2018-05-09T03:50:40.361Z,10.03
2018-05-09T03:53:15.588Z,8.30
2018-05-09T03:55:51.459Z,8.80
2018-05-09T03:58:26.424Z,9.33
2018-05-09T04:01:02.111Z,9.20
2018-05-09T04:03:51.318Z,8.93
2018-05-09T04:09:50.735Z,9.47
2018-05-09T04:12:25.768Z,7.73
2018-05-09T04:15:00.853Z,9.33
2018-05-09T04:17:36.556Z,10.33
2018-05-09T04:20:11.527Z,8.90
2018-05-09T04:22:47.245Z,8.03
2018-05-09T04:25:23.034Z,8.17
2018-05-09T04:27:58.130Z,8.60
2018-05-09T04:30:32.903Z,7.00
2018-05-09T04:33:08.408Z,8.20
2018-05-09T04:35:43.457Z,8.70
2018-05-09T04:38:18.620Z,6.37
2018-05-09T04:40:53.728Z,6.43
2018-05-09T04:43:28.648Z,6.00
2018-05-09T04:46:03.690Z,6.47
2018-05-09T04:48:39.127Z,6.43
2018-05-09T04:51:15.805Z,6.47
2018-05-09T04:53:51.252Z,7.87
2018-05-09T04:56:26.117Z,6.50
2018-05-09T04:59:02.235Z,6.33
2018-05-09T05:01:37.693Z,5.40
2018-05-09T05:04:12.720Z,5.80
2018-05-09T05:06:47.761Z,4.93
2018-05-09T05:09:22.999Z,5.97
2018-05-09T05:11:59.041Z,6.27
2018-05-09T05:14:34.400Z,6.30
2018-05-09T05:17:09.742Z,5.70
2018-05-09T05:19:45.339Z,4.80
2018-05-09T05:22:21.045Z,6.07
2018-05-09T05:24:56.797Z,5.93
2018-05-09T05:27:32.854Z,6.17
2018-05-09T05:30:08.601Z,6.07
2018-05-09T05:32:44.611Z,5.70
2018-05-09T05:35:20.309Z,10.57
2018-05-09T05:37:55.139Z,6.93
2018-05-09T05:40:29.970Z,7.87
2018-05-09T05:43:05.210Z,7.23
2018-05-09T05:45:40.246Z,6.30
2018-05-09T05:48:15.016Z,7.50
2018-05-09T05:50:49.805Z,7.00
2018-05-09T05:53:24.946Z,5.30
2018-05-09T05:56:01.426Z,6.13
2018-05-09T05:58:36.750Z,5.60
2018-05-09T06:01:12.201Z,5.53
2018-05-09T06:03:47.342Z,5.33
2018-05-09T06:06:22.195Z,5.00
2018-05-09T06:09:00.269Z,7.10
2018-05-09T06:11:35.107Z,5.40
2018-05-09T06:14:11.159Z,7.50
2018-05-09T06:16:47.489Z,10.47
2018-05-09T06:19:22.597Z,6.13
2018-05-09T06:21:58.314Z,5.70
2018-05-09T06:24:33.148Z,6.90
2018-05-09T06:27:10.023Z,4.47
2018-05-09T06:29:45.464Z,5.57
2018-05-09T06:32:21.728Z,5.30
2018-05-09T06:34:56.905Z,6.70
2018-05-09T06:37:32.375Z,4.87
2018-05-09T06:40:08.009Z,6.00
2018-05-09T06:42:43.100Z,5.37
2018-05-09T06:45:18.752Z,5.20
2018-05-09T06:47:54.199Z,5.60
2018-05-09T06:50:30.504Z,6.00
2018-05-09T06:53:08.704Z,4.73
2018-05-09T06:55:44.010Z,5.23
2018-05-09T06:58:19.662Z,4.73
2018-05-09T07:00:55.538Z,6.17
2018-05-09T07:03:30.287Z,5.23
2018-05-09T07:06:06.005Z,5.60
2018-05-09T07:08:41.665Z,6.10
2018-05-09T07:11:16.895Z,5.50
2018-05-09T07:13:52.736Z,5.17
2018-05-09T07:16:29.030Z,5.67
2018-05-09T07:19:05.072Z,7.00
2018-05-09T07:21:40.094Z,5.30
2018-05-09T07:24:15.334Z,4.33
2018-05-09T07:26:50.575Z,6.10
2018-05-09T07:29:25.813Z,5.40
2018-05-09T07:32:00.788Z,5.33
2018-05-09T07:34:36.705Z,4.60
2018-05-09T07:37:13.390Z,5.07
2018-05-09T07:39:51.488Z,5.30
2018-05-09T07:42:28.782Z,9.37
2018-05-09T07:45:04.629Z,3.97
2018-05-09T07:47:39.635Z,6.33
2018-05-09T07:50:17.456Z,4.50
2018-05-09T07:52:52.438Z,3.97
2018-05-09T07:55:27.345Z,4.73
2018-05-09T07:58:03.088Z,5.00
2018-05-09T08:00:38.728Z,4.67
2018-05-09T08:03:14.275Z,5.40
2018-05-09T08:05:49.925Z,4.03
2018-05-09T08:08:24.691Z,5.20
2018-05-09T08:11:00.706Z,6.00
2018-05-09T08:13:35.644Z,5.40
2018-05-09T08:16:10.891Z,5.90
2018-05-09T08:18:46.367Z,5.07
2018-05-09T08:21:23.247Z,6.10
2018-05-09T08:23:58.962Z,4.70
2018-05-09T08:26:34.201Z,5.50
2018-05-09T08:29:10.260Z,5.40
2018-05-09T08:31:45.091Z,5.07
2018-05-09T08:34:20.331Z,6.50
2018-05-09T08:36:55.676Z,6.13
2018-05-09T08:39:30.716Z,4.60
2018-05-09T08:42:05.640Z,5.80
2018-05-09T08:44:41.094Z,5.63
2018-05-09T08:47:16.325Z,5.70
2018-05-09T08:49:52.049Z,5.10
2018-05-09T08:52:26.906Z,5.20
2018-05-09T08:55:02.351Z,4.73
2018-05-09T08:57:37.591Z,5.53
2018-05-09T09:00:12.631Z,6.20
2018-05-09T09:02:47.607Z,5.13
2018-05-09T09:05:23.122Z,4.90
2018-05-09T09:07:58.352Z,4.87
2018-05-09T09:10:33.385Z,5.70
2018-05-09T09:13:08.215Z,5.33
2018-05-09T09:15:43.063Z,5.13
2018-05-09T09:18:19.452Z,4.97
2018-05-09T09:20:54.820Z,5.00
2018-05-09T09:23:29.788Z,4.40
2018-05-09T09:26:04.821Z,4.67
2018-05-09T09:28:40.062Z,3.90
2018-05-09T09:31:15.717Z,4.63
2018-05-09T09:33:50.853Z,4.07
2018-05-09T09:36:26.150Z,5.23
2018-05-09T09:39:02.252Z,4.13
2018-05-09T09:41:37.493Z,5.03
2018-05-09T09:44:13.757Z,4.40
2018-05-09T09:46:49.201Z,5.00
2018-05-09T09:49:24.448Z,5.17
2018-05-09T09:51:59.274Z,4.43
2018-05-09T09:54:34.308Z,4.20
2018-05-09T09:57:09.035Z,4.40
2018-05-09T09:59:45.605Z,3.70
2018-05-09T10:02:21.225Z,4.70
2018-05-09T10:04:56.644Z,5.40
2018-05-09T10:07:31.734Z,4.40
2018-05-09T10:10:07.588Z,4.50
2018-05-09T10:12:42.621Z,5.00
2018-05-09T10:15:17.452Z,4.63
2018-05-09T10:17:53.724Z,4.27
2018-05-09T10:20:29.160Z,3.90
2018-05-09T10:23:03.991Z,5.53
2018-05-09T10:25:39.026Z,5.93
2018-05-09T10:28:14.061Z,4.97
2018-05-09T10:30:48.895Z,6.23
2018-05-09T10:33:24.081Z,6.20
2018-05-09T10:35:58.961Z,5.87
2018-05-09T10:38:33.996Z,5.50
2018-05-09T10:41:09.396Z,5.97
2018-05-09T10:43:45.514Z,6.37
2018-05-09T10:46:20.535Z,7.27
2018-05-09T10:48:55.776Z,6.30
2018-05-09T10:51:31.426Z,6.70
2018-05-09T10:54:06.665Z,6.37
2018-05-09T10:56:41.702Z,5.90
2018-05-09T10:59:17.657Z,6.37
2018-05-09T11:01:52.595Z,5.53
2018-05-09T11:04:27.830Z,4.90
2018-05-09T11:07:03.438Z,6.50
2018-05-09T11:09:38.521Z,5.80
2018-05-09T11:12:13.757Z,6.40
2018-05-09T11:14:48.588Z,6.50
2018-05-09T11:17:24.031Z,6.80
2018-05-09T11:19:59.847Z,6.47
2018-05-09T11:22:37.997Z,6.20
2018-05-09T11:25:13.234Z,5.43
2018-05-09T11:27:49.601Z,4.87
2018-05-09T11:30:25.045Z,5.90
2018-05-09T11:33:00.904Z,6.07
2018-05-09T11:35:36.546Z,5.57
2018-05-09T11:38:11.785Z,5.37
2018-05-09T11:40:48.493Z,6.23
2018-05-09T11:43:24.863Z,5.77
2018-05-09T11:46:03.854Z,5.27
2018-05-09T11:48:39.505Z,6.23
2018-05-09T11:51:14.563Z,7.20
2018-05-09T11:53:50.375Z,7.37
2018-05-09T11:56:25.225Z,7.57
2018-05-09T11:59:00.463Z,7.47
2018-05-09T12:01:35.791Z,7.33
2018-05-09T12:04:10.839Z,7.20
2018-05-09T12:06:46.901Z,7.37
2018-05-09T12:09:24.631Z,7.80
2018-05-09T12:12:00.254Z,7.83
2018-05-09T12:14:35.282Z,7.53
2018-05-09T12:17:11.711Z,7.80
2018-05-09T12:19:47.677Z,7.87
2018-05-09T12:22:27.617Z,6.57
2018-05-09T12:25:03.306Z,7.57
2018-05-09T12:27:38.751Z,8.70
2018-05-09T12:30:13.583Z,9.67
2018-05-09T12:32:48.553Z,8.30
2018-05-09T12:35:24.659Z,7.17
2018-05-09T12:38:00.121Z,8.17
2018-05-09T12:40:34.971Z,8.57
2018-05-09T12:43:10.604Z,9.77
2018-05-09T12:45:47.077Z,8.80
2018-05-09T12:48:22.313Z,8.03
2018-05-09T12:50:57.304Z,7.77
2018-05-09T12:53:33.512Z,7.87
2018-05-09T12:56:09.263Z,8.10
2018-05-09T12:58:45.116Z,8.43
2018-05-09T13:01:20.972Z,9.50
2018-05-09T13:03:56.158Z,8.93
2018-05-09T13:06:31.242Z,8.07
2018-05-09T13:09:06.627Z,9.67
2018-05-09T13:11:41.929Z,8.43
2018-05-09T13:14:16.756Z,10.17
2018-05-09T13:16:52.204Z,11.13
2018-05-09T13:19:27.796Z,7.97
2018-05-09T13:22:02.684Z,9.03
2018-05-09T13:24:38.334Z,8.20
2018-05-09T13:27:13.718Z,8.40
2018-05-09T13:29:49.017Z,10.00
2018-05-09T13:32:25.080Z,8.70
2018-05-09T13:35:00.316Z,7.90
2018-05-09T13:37:35.353Z,8.70
2018-05-09T13:40:12.733Z,6.67
2018-05-09T13:42:47.669Z,7.03
2018-05-09T13:45:22.504Z,9.43
2018-05-09T13:47:57.546Z,8.90
2018-05-09T13:50:33.088Z,9.23
2018-05-09T13:53:09.516Z,8.17
2018-05-09T13:55:44.754Z,8.43
2018-05-09T13:58:19.625Z,9.60
2018-05-09T14:00:56.375Z,10.93
2018-05-09T14:03:31.333Z,10.10
2018-05-09T14:06:06.311Z,9.77
2018-05-09T14:08:42.223Z,9.23
2018-05-09T14:11:17.464Z,9.73
2018-05-09T14:13:53.787Z,9.40
2018-05-09T14:16:29.184Z,10.60
2018-05-09T14:19:05.232Z,10.73
2018-05-09T14:21:41.494Z,12.37
2018-05-09T14:24:17.560Z,13.10
2018-05-09T14:26:52.384Z,15.43
2018-05-09T14:29:27.419Z,11.60
2018-05-09T14:32:02.433Z,15.13
2018-05-09T14:34:37.837Z,13.97
2018-05-09T14:37:13.553Z,15.80
2018-05-09T14:39:49.407Z,15.03
2018-05-09T14:42:24.234Z,12.20
2018-05-09T14:44:59.884Z,13.27
2018-05-09T14:47:34.723Z,11.97
2018-05-09T14:50:11.714Z,12.70
2018-05-09T14:52:47.619Z,13.57
2018-05-09T14:55:22.481Z,14.77
2018-05-09T14:57:58.057Z,15.40
2018-05-09T15:00:33.473Z,13.83
2018-05-09T15:03:10.147Z,16.07
2018-05-09T15:05:45.118Z,14.23
2018-05-09T15:08:20.377Z,16.10
2018-05-09T15:10:55.564Z,14.30
2018-05-09T15:13:30.593Z,13.17
2018-05-09T15:16:06.243Z,13.17
2018-05-09T15:18:42.097Z,13.33
2018-05-09T15:21:16.935Z,20.03
2018-05-09T15:23:53.547Z,13.73
2018-05-09T15:26:28.471Z,12.27
2018-05-09T15:29:03.573Z,13.83
2018-05-09T15:31:39.424Z,14.27
2018-05-09T15:34:15.799Z,14.00
2018-05-09T15:36:51.142Z,13.40
2018-05-09T15:39:25.966Z,13.40
2018-05-09T15:42:01.103Z,14.23
2018-05-09T15:44:35.940Z,14.93
2018-05-09T15:47:10.966Z,13.60
2018-05-09T15:49:46.411Z,15.93
2018-05-09T15:52:21.650Z,16.47
2018-05-09T15:54:56.697Z,16.37
2018-05-09T15:57:31.723Z,14.73
2018-05-09T16:00:06.966Z,16.93
2018-05-09T16:02:41.795Z,14.00
2018-05-09T16:05:17.752Z,15.43
2018-05-09T16:07:54.217Z,20.50
2018-05-09T16:10:30.515Z,15.87
2018-05-09T16:13:05.732Z,15.87
2018-05-09T16:15:40.760Z,12.87
2018-05-09T16:18:15.794Z,13.43
2018-05-09T16:20:50.847Z,15.43
2018-05-09T16:23:26.069Z,13.60
2018-05-09T16:26:00.898Z,16.80
2018-05-09T16:28:38.118Z,16.60
2018-05-09T16:31:14.861Z,16.07
2018-05-09T16:33:50.098Z,13.90
2018-05-09T16:36:25.236Z,16.23
2018-05-09T16:39:00.173Z,15.07
2018-05-09T16:41:34.936Z,16.60
2018-05-09T16:44:09.859Z,14.37
2018-05-09T16:46:44.661Z,15.67
2018-05-09T16:49:19.696Z,16.13
2018-05-09T16:51:55.548Z,15.53
2018-05-09T16:54:30.183Z,17.30
2018-05-09T16:57:06.438Z,16.97
2018-05-09T16:59:43.522Z,15.23
2018-05-09T17:02:18.556Z,15.50
2018-05-09T17:04:53.524Z,14.73
2018-05-09T17:07:32.529Z,12.80
2018-05-09T17:10:08.065Z,14.27
2018-05-09T17:12:43.719Z,13.73
2018-05-09T17:15:18.980Z,14.03
2018-05-09T17:17:54.811Z,15.23
2018-05-09T17:20:30.610Z,14.43
2018-05-09T17:23:06.323Z,12.70
2018-05-09T17:25:42.375Z,14.10
2018-05-09T17:28:17.423Z,12.03
2018-05-09T17:30:52.201Z,14.50
2018-05-09T17:33:29.751Z,12.17
2018-05-09T17:36:05.181Z,11.67
2018-05-09T17:38:40.212Z,10.80
2018-05-09T17:41:15.013Z,11.20
2018-05-09T17:43:50.488Z,10.47
2018-05-09T17:46:25.535Z,10.40
2018-05-09T17:49:01.922Z,12.30
2018-05-09T17:51:37.236Z,12.10
2018-05-09T17:54:13.089Z,11.07
2018-05-09T17:56:48.122Z,11.77
2018-05-09T17:59:26.236Z,11.07
2018-05-09T18:02:01.484Z,11.80
2018-05-09T18:04:37.264Z,10.80
2018-05-09T18:07:13.599Z,11.40
2018-05-09T18:09:49.240Z,9.80
2018-05-09T18:12:25.891Z,9.13
2018-05-09T18:15:01.559Z,9.93
2018-05-09T18:17:37.208Z,10.40
2018-05-09T18:20:12.464Z,9.50
2018-05-09T18:22:48.506Z,11.27
2018-05-09T18:25:24.776Z,10.07
2018-05-09T18:28:00.198Z,9.10
2018-05-09T18:30:35.053Z,9.30
2018-05-09T18:33:10.091Z,9.13
2018-05-09T18:35:45.741Z,9.73
2018-05-09T18:38:20.874Z,9.40
2018-05-09T18:40:56.659Z,8.80
2018-05-09T18:43:32.724Z,9.20
2018-05-09T18:46:09.353Z,9.43
2018-05-09T18:48:44.443Z,10.23
2018-05-09T18:51:19.885Z,9.70
2018-05-09T18:53:57.584Z,9.53
2018-05-09T18:56:32.600Z,9.03
2018-05-09T18:59:09.640Z,10.43
2018-05-09T19:01:45.364Z,11.17
2018-05-09T19:04:21.017Z,8.80
2018-05-09T19:06:55.965Z,10.60
2018-05-09T19:09:32.099Z,9.33
2018-05-09T19:12:08.794Z,9.57
2018-05-09T19:14:44.211Z,15.30
2018-05-09T19:17:19.655Z,11.27
2018-05-09T19:19:56.125Z,11.43
2018-05-09T19:22:31.293Z,11.90
2018-05-09T19:25:07.422Z,12.80
2018-05-09T19:27:42.465Z,13.93
2018-05-09T19:30:17.289Z,11.83
2018-05-09T19:32:52.938Z,10.70
2018-05-09T19:35:27.770Z,11.40
2018-05-09T19:38:02.601Z,10.37
2018-05-09T19:40:38.669Z,31.93
2018-05-09T19:43:13.490Z,11.00
2018-05-09T19:45:48.316Z,10.73
2018-05-09T19:48:24.785Z,9.93
2018-05-09T19:51:00.030Z,10.13
2018-05-09T19:53:34.857Z,8.10
2018-05-09T19:56:09.888Z,8.33
2018-05-09T19:58:45.756Z,6.83
2018-05-09T20:01:21.073Z,6.60
2018-05-09T20:03:56.685Z,8.53
2018-05-09T20:06:32.673Z,6.30
2018-05-09T20:09:07.734Z,7.57
2018-05-09T20:11:43.583Z,10.07
2018-05-09T20:14:18.416Z,6.50
2018-05-09T20:16:54.055Z,6.77
2018-05-09T20:19:29.509Z,7.03
2018-05-09T20:22:04.342Z,7.87
2018-05-09T20:24:40.811Z,8.50
2018-05-09T20:27:16.051Z,5.80
2018-05-09T20:29:51.501Z,7.33
2018-05-09T20:32:38.833Z,7.40
2018-05-09T20:35:14.470Z,9.17
2018-05-09T20:37:49.913Z,7.50
2018-05-09T20:40:26.182Z,6.37
2018-05-09T20:43:01.634Z,7.30
2018-05-09T20:45:37.016Z,18.60
2018-05-09T20:48:12.102Z,8.30
2018-05-09T20:50:49.128Z,8.90
2018-05-09T20:53:24.627Z,8.73
2018-05-09T20:55:59.775Z,7.00
2018-05-09T20:58:35.524Z,7.87
2018-05-09T21:01:23.045Z,6.90
2018-05-09T21:03:59.314Z,12.53
2018-05-09T21:06:34.754Z,8.67
2018-05-09T21:09:09.842Z,8.67
2018-05-09T21:11:57.520Z,7.70
2018-05-09T21:14:32.568Z,7.37
2018-05-09T21:17:08.205Z,7.40
2018-05-09T21:19:44.675Z,8.27
2018-05-09T21:22:19.709Z,8.33
2018-05-09T21:24:54.687Z,8.80
2018-05-09T21:27:29.511Z,8.03
2018-05-09T21:30:05.439Z,10.27
2018-05-09T21:32:41.287Z,7.83
2018-05-09T21:35:16.135Z,8.07
2018-05-09T21:37:52.182Z,7.87
2018-05-09T21:40:27.768Z,8.93
2018-05-09T21:43:03.479Z,9.97
2018-05-09T21:45:38.301Z,9.33
2018-05-09T21:48:14.171Z,10.40
2018-05-09T21:50:49.181Z,10.63
2018-05-09T21:53:24.029Z,10.10
2018-05-09T21:56:00.453Z,9.37
2018-05-09T21:58:36.753Z,9.53
2018-05-09T22:01:11.880Z,10.27
2018-05-09T22:03:49.473Z,11.93
2018-05-09T22:06:25.937Z,11.13
2018-05-09T22:09:02.338Z,10.87
2018-05-09T22:11:39.245Z,11.30
2018-05-09T22:14:14.798Z,10.00
2018-05-09T22:16:49.790Z,10.00
2018-05-09T22:19:25.641Z,10.93
2018-05-09T22:22:01.328Z,9.50
2018-05-09T22:24:36.118Z,12.00
2018-05-09T22:27:13.023Z,12.37
2018-05-09T22:29:49.055Z,11.20
2018-05-09T22:32:25.372Z,11.60
2018-05-09T22:35:01.263Z,10.17
2018-05-09T22:37:37.079Z,10.73
2018-05-09T22:40:12.096Z,10.17
2018-05-09T22:42:47.000Z,10.63
2018-05-09T22:45:22.834Z,10.73
2018-05-09T22:47:57.888Z,9.80
2018-05-09T22:50:33.124Z,10.30
2018-05-09T22:53:08.674Z,12.27
2018-05-09T22:55:43.504Z,12.87
2018-05-09T22:58:18.333Z,9.63
2018-05-09T23:00:53.712Z,9.70
2018-05-09T23:03:29.221Z,9.50
2018-05-09T23:06:04.469Z,10.30
2018-05-09T23:08:39.912Z,8.67
2018-05-09T23:11:14.742Z,9.60
2018-05-09T23:13:50.384Z,10.43
2018-05-09T23:16:25.431Z,9.20
2018-05-09T23:19:00.251Z,11.97
2018-05-09T23:21:35.905Z,8.90
2018-05-09T23:24:10.740Z,9.47
2018-05-09T23:26:47.741Z,9.00
2018-05-09T23:29:23.469Z,9.73
2018-05-09T23:31:58.517Z,16.93
2018-05-09T23:34:34.261Z,10.90
2018-05-09T23:37:08.995Z,11.70
2018-05-09T23:39:44.014Z,10.10
2018-05-09T23:42:19.048Z,10.60
2018-05-09T23:44:53.890Z,11.27
2018-05-09T23:47:29.062Z,10.93
2018-05-09T23:50:04.720Z,11.37
2018-05-09T23:52:40.219Z,10.37
2018-05-09T23:55:15.251Z,10.77
2018-05-09T23:57:51.023Z,11.57
